Time;durP1;ratioP1;P1;durP2;ratioP2;P2;SDS_P1;SDS_P2;PMS_P1;PMS_P2;Temp;Humidity;BMP_temperature;BMP_pressure;BME280_temperature;BME280_humidity;BME280_pressure;Samples;Min_cycle;Max_cycle;Signal;HPM_P1;HPM_P2
2023/01/19 00:01:34;;;;;;;10.70;9.70;;;1.60;51.30;;;;;;20481;6920;118289;-73
2023/01/19 00:03:59;;;;;;;12.87;11.70;;;1.60;50.90;;;;;;20278;6920;310191;-73
2023/01/19 00:06:25;;;;;;;10.37;9.47;;;1.70;51.10;;;;;;20471;6920;118382;-72
2023/01/19 00:08:51;;;;;;;12.57;11.47;;;1.60;51.20;;;;;;20263;6920;313734;-72
2023/01/19 00:11:17;;;;;;;11.65;9.45;;;1.50;51.20;;;;;;20493;6920;117778;-71
2023/01/19 00:13:48;;;;;;;10.03;8.97;;;1.50;51.20;;;;;;20489;6920;118066;-73
2023/01/19 00:16:10;;;;;;;10.77;8.93;;;1.10;52.10;;;;;;20478;6920;117964;-72
2023/01/19 00:18:35;;;;;;;10.53;9.43;;;1.10;52.10;;;;;;20473;6920;127904;-73
2023/01/19 00:21:01;;;;;;;12.20;11.00;;;0.90;52.50;;;;;;20279;6920;340273;-72
2023/01/19 00:23:27;;;;;;;9.87;9.00;;;1.10;52.30;;;;;;20499;6920;119081;-72
2023/01/19 00:25:53;;;;;;;11.90;10.90;;;1.10;52.20;;;;;;20278;6920;311024;-72
2023/01/19 00:28:18;;;;;;;12.57;11.45;;;1.20;51.90;;;;;;20285;6920;314740;-73
2023/01/19 00:30:45;;;;;;;10.57;9.43;;;1.50;51.10;;;;;;20477;6920;121754;-73
2023/01/19 00:33:12;;;;;;;10.07;9.07;;;1.50;51.10;;;;;;20493;6920;117527;-72
2023/01/19 00:35:36;;;;;;;9.80;8.80;;;1.30;51.60;;;;;;20485;6920;118670;-73
2023/01/19 00:38:01;;;;;;;12.23;11.17;;;1.00;52.10;;;;;;20278;6920;282106;-73
2023/01/19 00:40:27;;;;;;;11.68;10.40;;;1.10;52.20;;;;;;20473;6920;119636;-73
2023/01/19 00:42:53;;;;;;;10.03;9.03;;;0.90;52.40;;;;;;20485;6920;117958;-73
2023/01/19 00:45:19;;;;;;;9.70;8.80;;;0.90;52.40;;;;;;20480;6920;118422;-72
2023/01/19 00:47:44;;;;;;;12.77;11.60;;;0.80;52.80;;;;;;20268;6920;280537;-73
2023/01/19 00:50:13;;;;;;;12.57;10.13;;;0.90;52.80;;;;;;20483;6920;117935;-72
2023/01/19 00:52:41;;;;;;;10.47;9.47;;;0.90;52.60;;;;;;20390;6920;119716;-73
2023/01/19 00:55:07;;;;;;;10.97;9.87;;;0.80;52.70;;;;;;20468;6920;117848;-72
2023/01/19 00:57:33;;;;;;;13.30;12.00;;;0.70;53.20;;;;;;20228;6920;301445;-72
2023/01/19 01:00:00;;;;;;;10.52;9.60;;;0.80;53.00;;;;;;20470;6920;118983;-72
2023/01/19 01:02:26;;;;;;;10.50;9.43;;;0.80;53.00;;;;;;20466;6920;118682;-73
2023/01/19 01:04:53;;;;;;;10.87;9.87;;;0.70;53.30;;;;;;20491;6918;119465;-72
2023/01/19 01:07:18;;;;;;;13.40;12.20;;;0.60;53.70;;;;;;20276;6919;328146;-73
2023/01/19 01:09:44;;;;;;;11.30;10.30;;;0.70;53.60;;;;;;20501;6920;118194;-72
2023/01/19 01:12:09;;;;;;;10.50;9.53;;;0.80;53.40;;;;;;20498;6920;120464;-72
2023/01/19 01:14:35;;;;;;;11.30;9.27;;;0.60;53.50;;;;;;20481;6920;123947;-73
2023/01/19 01:17:00;;;;;;;12.87;11.77;;;0.50;53.90;;;;;;20286;6920;306410;-72
2023/01/19 01:19:26;;;;;;;11.77;9.73;;;0.70;53.80;;;;;;20492;6920;117832;-72
2023/01/19 01:21:51;;;;;;;12.80;11.60;;;0.70;53.50;;;;;;20285;6920;280431;-72
2023/01/19 01:24:17;;;;;;;12.50;11.20;;;0.90;53.20;;;;;;20277;6920;344390;-72
2023/01/19 01:26:43;;;;;;;10.77;9.77;;;1.20;52.20;;;;;;20469;6920;118137;-71
2023/01/19 01:29:08;;;;;;;12.30;11.30;;;1.20;52.00;;;;;;20277;6920;339483;-71
2023/01/19 01:31:34;;;;;;;10.30;9.50;;;1.20;51.90;;;;;;20495;6920;117803;-72
2023/01/19 01:33:59;;;;;;;12.40;10.95;;;1.20;51.90;;;;;;20287;6920;340059;-73
2023/01/19 01:36:27;;;;;;;12.88;11.70;;;1.20;51.90;;;;;;20268;6920;343404;-73
2023/01/19 01:38:52;;;;;;;9.90;9.10;;;1.40;51.20;;;;;;20495;6920;117961;-72
2023/01/19 01:41:17;;;;;;;9.27;8.37;;;1.30;51.20;;;;;;20498;6920;117482;-72
2023/01/19 01:43:46;;;;;;;8.90;8.00;;;1.10;51.80;;;;;;20500;6920;117382;-72
2023/01/19 01:46:14;;;;;;;11.80;10.80;;;0.80;52.30;;;;;;20269;6920;311099;-72
2023/01/19 01:48:37;;;;;;;10.50;9.50;;;0.90;52.40;;;;;;20462;6920;146088;-73
2023/01/19 01:51:23;;;;;;;10.52;9.38;;;0.70;52.50;;;;;;20493;6920;118363;-72
2023/01/19 01:53:48;;;;;;;9.33;8.33;;;0.70;52.50;;;;;;20491;6920;118956;-73
2023/01/19 01:56:15;;;;;;;9.23;8.43;;;0.50;52.80;;;;;;20479;6920;119115;-72
2023/01/19 01:58:40;;;;;;;9.27;8.50;;;0.40;53.20;;;;;;20457;6920;124572;-72
2023/01/19 02:03:51;;;;;;;10.17;9.17;;;0.40;53.30;;;;;;20502;6920;118513;-72
2023/01/19 02:06:17;;;;;;;9.43;8.53;;;0.50;53.00;;;;;;20481;6920;119407;-72
2023/01/19 02:14:13;;;;;;;12.73;11.53;;;0.10;53.50;;;;;;20280;6920;283895;-72
2023/01/19 02:16:39;;;;;;;12.57;11.48;;;0.40;53.70;;;;;;20262;6918;281280;-73
2023/01/19 02:19:04;;;;;;;10.20;9.40;;;0.80;52.70;;;;;;20488;6919;117835;-72
2023/01/19 02:21:41;;;;;;;12.55;11.45;;;1.00;52.40;;;;;;20273;6920;310216;-73
2023/01/19 02:24:06;;;;;;;12.70;11.60;;;1.00;52.10;;;;;;20248;6920;314719;-72
2023/01/19 02:26:39;;;;;;;11.30;10.20;;;1.30;51.20;;;;;;20474;6920;124076;-72
2023/01/19 02:29:08;;;;;;;12.18;11.07;;;1.20;51.10;;;;;;20150;6920;315239;-72
2023/01/19 02:31:37;;;;;;;12.77;11.47;;;1.20;50.60;;;;;;20247;6920;285309;-73
2023/01/19 02:34:02;;;;;;;13.23;12.03;;;1.40;50.30;;;;;;20273;6920;311248;-73
2023/01/19 02:36:28;;;;;;;13.33;12.23;;;1.60;49.50;;;;;;20255;6920;304831;-72
2023/01/19 02:38:55;;;;;;;11.25;10.13;;;1.50;49.30;;;;;;20479;6920;118113;-72
2023/01/19 02:41:20;;;;;;;13.20;12.00;;;1.40;49.40;;;;;;20270;6920;306105;-72
2023/01/19 02:43:47;;;;;;;14.13;12.93;;;1.40;49.40;;;;;;20263;6920;281978;-72
2023/01/19 02:46:14;;;;;;;11.47;10.37;;;1.60;49.20;;;;;;20486;6920;123702;-73
2023/01/19 02:48:39;;;;;;;11.03;9.93;;;1.00;50.80;;;;;;20467;6920;121535;-72
2023/01/19 02:51:15;;;;;;;13.93;12.48;;;0.90;50.00;;;;;;20274;6920;301856;-73
2023/01/19 02:54:03;;;;;;;14.03;12.93;;;1.10;50.60;;;;;;20259;6920;282627;-72
2023/01/19 02:57:09;;;;;;;11.07;10.07;;;0.90;50.00;;;;;;20467;6920;117990;-72
2023/01/19 02:59:48;;;;;;;10.53;9.47;;;0.90;50.00;;;;;;20487;6920;118345;-72
2023/01/19 03:02:32;;;;;;;10.27;9.37;;;0.50;50.80;;;;;;20494;6920;117537;-72
2023/01/19 03:05:02;;;;;;;13.53;12.40;;;0.20;52.10;;;;;;20257;6920;310570;-72
2023/01/19 03:07:28;;;;;;;14.13;12.83;;;0.30;51.90;;;;;;20279;6920;313477;-72
2023/01/19 03:09:56;;;;;;;11.63;10.50;;;0.60;51.40;;;;;;20463;6920;119061;-72
2023/01/19 03:12:26;;;;;;;13.48;12.37;;;0.60;51.20;;;;;;20251;6920;280186;-73
2023/01/19 03:14:51;;;;;;;10.50;9.47;;;0.60;51.40;;;;;;20147;6920;118001;-72
2023/01/19 03:17:18;;;;;;;14.10;12.73;;;0.60;51.40;;;;;;20263;6920;281461;-72
2023/01/19 03:19:44;;;;;;;14.00;12.70;;;0.80;51.00;;;;;;20283;6920;310206;-71
2023/01/19 03:22:10;;;;;;;11.47;9.83;;;0.80;51.00;;;;;;20472;6920;118349;-72
2023/01/19 03:24:38;;;;;;;14.13;12.80;;;0.80;51.00;;;;;;20243;6920;281122;-72
2023/01/19 03:27:04;;;;;;;10.67;9.70;;;0.70;50.90;;;;;;20491;6918;120162;-72
2023/01/19 03:29:30;;;;;;;13.23;12.10;;;0.70;50.90;;;;;;20231;6919;299532;-72
2023/01/19 03:31:56;;;;;;;10.73;9.73;;;0.60;50.80;;;;;;20482;6920;119401;-72
2023/01/19 03:34:22;;;;;;;9.90;8.90;;;0.60;50.80;;;;;;20477;6920;117493;-72
2023/01/19 03:36:47;;;;;;;9.00;8.20;;;0.40;51.20;;;;;;20458;6920;123649;-73
2023/01/19 03:39:13;;;;;;;9.63;8.43;;;0.20;51.70;;;;;;20454;6920;117779;-73
2023/01/19 03:41:38;;;;;;;9.23;8.33;;;0.00;52.00;;;;;;20470;6920;117503;-72
2023/01/19 03:44:05;;;;;;;10.13;9.07;;;-0.20;52.70;;;;;;20484;6920;117881;-72
2023/01/19 03:46:30;;;;;;;10.10;9.10;;;-0.30;52.60;;;;;;20472;6920;118759;-72
2023/01/19 03:48:57;;;;;;;13.38;12.07;;;-0.30;53.00;;;;;;20277;6920;344303;-72
2023/01/19 03:51:23;;;;;;;14.23;12.90;;;-0.20;52.60;;;;;;20275;6920;319529;-73
2023/01/19 03:53:48;;;;;;;15.15;13.70;;;0.20;51.80;;;;;;20267;6920;310727;-73
2023/01/19 03:56:17;;;;;;;15.07;13.73;;;0.50;51.10;;;;;;20273;6920;314681;-73
2023/01/19 03:58:43;;;;;;;13.70;12.50;;;0.70;50.50;;;;;;20252;6920;310259;-71
2023/01/19 04:01:08;;;;;;;14.40;13.10;;;0.90;50.00;;;;;;20258;6920;281027;-72
2023/01/19 04:03:34;;;;;;;11.83;10.80;;;1.00;49.60;;;;;;20483;6920;117840;-72
2023/01/19 04:06:00;;;;;;;13.63;12.43;;;0.70;50.20;;;;;;20262;6920;339456;-72
2023/01/19 04:08:26;;;;;;;12.47;11.17;;;0.70;50.20;;;;;;20467;6920;119583;-73
2023/01/19 04:10:51;;;;;;;11.33;9.33;;;0.60;50.40;;;;;;20491;6920;120645;-73
2023/01/19 04:13:18;;;;;;;13.80;12.47;;;0.30;50.90;;;;;;20282;6920;287078;-72
2023/01/19 04:15:44;;;;;;;14.00;12.70;;;0.30;51.30;;;;;;20281;6920;346317;-72
2023/01/19 04:18:09;;;;;;;11.37;10.27;;;0.50;50.80;;;;;;20494;6920;123579;-72
2023/01/19 04:20:35;;;;;;;13.27;12.07;;;0.50;50.80;;;;;;20260;6920;310767;-71
2023/01/19 04:23:01;;;;;;;13.02;12.02;;;0.70;50.60;;;;;;20270;6920;346500;-72
2023/01/19 04:25:27;;;;;;;10.50;9.47;;;0.70;50.10;;;;;;20494;6920;119136;-73
2023/01/19 04:27:52;;;;;;;12.73;11.55;;;0.50;50.00;;;;;;20274;6920;296657;-73
2023/01/19 04:30:18;;;;;;;10.70;9.70;;;0.50;50.10;;;;;;20485;6920;118053;-72
2023/01/19 04:32:43;;;;;;;9.63;8.83;;;0.40;50.20;;;;;;20471;6920;118623;-72
2023/01/19 04:35:09;;;;;;;13.20;11.87;;;0.10;50.60;;;;;;20277;6920;285310;-72
2023/01/19 04:37:35;;;;;;;14.00;12.65;;;0.40;50.80;;;;;;20278;6920;308778;-72
2023/01/19 04:40:01;;;;;;;11.37;10.23;;;0.30;50.10;;;;;;20479;6918;120409;-72
2023/01/19 04:42:26;;;;;;;9.90;9.00;;;0.30;50.20;;;;;;20473;6919;120883;-72
2023/01/19 04:44:52;;;;;;;13.70;12.40;;;0.00;50.60;;;;;;20285;6920;310441;-72
2023/01/19 04:47:18;;;;;;;11.43;10.10;;;0.10;51.30;;;;;;20488;6920;118177;-76
2023/01/19 04:49:43;;;;;;;10.60;9.67;;;0.10;51.40;;;;;;20487;6920;117723;-71
2023/01/19 04:52:09;;;;;;;9.10;8.30;;;0.00;51.80;;;;;;20475;6920;123545;-72
2023/01/19 04:54:35;;;;;;;12.00;10.90;;;-0.10;52.40;;;;;;20246;6920;324968;-71
2023/01/19 04:57:00;;;;;;;11.90;10.80;;;0.00;52.50;;;;;;20281;6920;307236;-72
2023/01/19 04:59:26;;;;;;;10.20;9.18;;;0.50;51.50;;;;;;20489;6920;121750;-72
2023/01/19 05:01:52;;;;;;;11.23;10.20;;;0.50;51.50;;;;;;20286;6920;281354;-72
2023/01/19 05:04:21;;;;;;;11.40;10.40;;;0.70;51.10;;;;;;20274;6920;280493;-72
2023/01/19 05:06:44;;;;;;;10.00;8.97;;;0.90;50.40;;;;;;20474;6920;118265;-72
2023/01/19 05:09:12;;;;;;;9.13;8.20;;;0.90;50.30;;;;;;20502;6920;118725;-72
2023/01/19 05:11:36;;;;;;;8.70;7.87;;;0.70;51.50;;;;;;20494;6920;117902;-72
2023/01/19 05:14:01;;;;;;;10.98;9.98;;;0.50;51.30;;;;;;20297;6920;310699;-72
2023/01/19 05:16:27;;;;;;;11.05;10.05;;;0.60;51.20;;;;;;20269;6920;320534;-73
2023/01/19 05:18:52;;;;;;;9.27;7.70;;;0.80;50.30;;;;;;20498;6920;118021;-72
2023/01/19 05:21:18;;;;;;;7.50;6.80;;;0.90;50.30;;;;;;20489;6920;117444;-72
2023/01/19 05:23:44;;;;;;;8.48;7.78;;;0.60;50.70;;;;;;20491;6920;117543;-74
2023/01/19 05:26:09;;;;;;;10.20;9.40;;;0.50;51.20;;;;;;20278;6920;310117;-73
2023/01/19 05:28:35;;;;;;;8.88;8.00;;;0.60;51.00;;;;;;20466;6920;128485;-73
2023/01/19 05:31:00;;;;;;;8.20;7.30;;;0.60;51.00;;;;;;20489;6920;117676;-70
2023/01/19 05:33:26;;;;;;;10.70;9.63;;;0.50;51.30;;;;;;20281;6920;314954;-73
2023/01/19 05:35:52;;;;;;;11.88;10.88;;;1.00;50.60;;;;;;20281;6920;280927;-72
2023/01/19 05:38:18;;;;;;;12.10;11.20;;;1.30;50.30;;;;;;20277;6920;340012;-74
2023/01/19 05:40:44;;;;;;;9.80;9.00;;;1.20;49.80;;;;;;20473;6920;127734;-75
2023/01/19 05:43:10;;;;;;;9.48;8.57;;;1.20;49.70;;;;;;20492;6920;118893;-72
2023/01/19 05:45:37;;;;;;;8.87;7.87;;;0.90;50.10;;;;;;20491;6920;121307;-73
2023/01/19 05:48:01;;;;;;;8.13;7.43;;;0.40;50.90;;;;;;20480;6920;117909;-72
2023/01/19 05:50:27;;;;;;;7.20;6.60;;;0.40;50.90;;;;;;20472;6918;118783;-73
2023/01/19 05:52:52;;;;;;;9.80;8.90;;;0.20;51.30;;;;;;20283;6919;310480;-74
2023/01/19 05:55:19;;;;;;;8.38;7.68;;;0.30;51.20;;;;;;20490;6920;119059;-73
2023/01/19 05:57:46;;;;;;;8.00;7.30;;;0.20;51.20;;;;;;20493;6920;117443;-71
2023/01/19 06:00:11;;;;;;;7.87;7.10;;;0.10;51.10;;;;;;20492;6920;118238;-73
2023/01/19 06:02:37;;;;;;;7.40;6.80;;;0.00;51.50;;;;;;20474;6920;121208;-74
2023/01/19 06:05:03;;;;;;;7.07;6.47;;;-0.20;51.80;;;;;;20489;6920;117917;-74
2023/01/19 06:07:28;;;;;;;7.70;6.93;;;-0.30;52.10;;;;;;20478;6920;120211;-72
2023/01/19 06:09:54;;;;;;;7.43;6.83;;;-0.40;52.30;;;;;;20489;6920;117514;-73
2023/01/19 06:12:20;;;;;;;46.33;25.77;;;-0.30;52.00;;;;;;20275;6920;281290;-73
2023/01/19 06:14:46;;;;;;;23.37;13.67;;;-0.30;52.00;;;;;;20474;6920;119400;-72
2023/01/19 06:17:12;;;;;;;11.27;8.83;;;-0.30;51.60;;;;;;20480;6920;118416;-71
2023/01/19 06:19:37;;;;;;;11.43;10.32;;;-0.30;51.70;;;;;;20284;6920;280558;-71
2023/01/19 06:22:03;;;;;;;11.27;10.25;;;-0.10;51.30;;;;;;20256;6920;286387;-74
2023/01/19 06:24:29;;;;;;;10.98;10.07;;;0.60;49.60;;;;;;20264;6920;280947;-73
2023/01/19 06:26:55;;;;;;;9.53;8.60;;;0.50;49.50;;;;;;20498;6920;123935;-77
2023/01/19 06:29:22;;;;;;;10.57;9.57;;;0.50;49.50;;;;;;20285;6920;280507;-73
2023/01/19 06:31:48;;;;;;;8.70;8.00;;;0.50;49.40;;;;;;20490;6920;119264;-74
2023/01/19 06:34:14;;;;;;;10.33;9.43;;;0.40;48.80;;;;;;20280;6920;284838;-73
2023/01/19 06:36:39;;;;;;;9.53;8.67;;;0.40;49.30;;;;;;20472;6920;119251;-74
2023/01/19 06:39:05;;;;;;;11.30;8.63;;;0.40;49.40;;;;;;20493;6920;118144;-73
2023/01/19 06:41:34;;;;;;;16.23;14.10;;;0.10;49.80;;;;;;20276;6920;318414;-74
2023/01/19 06:43:59;;;;;;;11.70;10.77;;;0.20;49.80;;;;;;20275;6920;310333;-73
2023/01/19 06:46:25;;;;;;;10.70;9.80;;;0.40;49.70;;;;;;20272;6920;310649;-73
2023/01/19 06:48:50;;;;;;;9.93;9.23;;;0.70;48.50;;;;;;20283;6920;309761;-73
2023/01/19 06:51:17;;;;;;;8.30;7.60;;;0.70;48.30;;;;;;20492;6920;117969;-73
2023/01/19 06:53:42;;;;;;;9.80;9.10;;;0.60;48.20;;;;;;20277;6920;315275;-73
2023/01/19 06:56:08;;;;;;;10.00;9.20;;;0.60;48.40;;;;;;20283;6920;315473;-77
2023/01/19 06:58:33;;;;;;;10.20;9.30;;;0.70;48.00;;;;;;20252;6920;304432;-75
2023/01/19 07:01:03;;;;;;;9.63;8.93;;;1.00;47.40;;;;;;20271;6920;340373;-74
2023/01/19 07:03:28;;;;;;;10.40;9.60;;;1.00;47.30;;;;;;20273;6918;315540;-74
2023/01/19 07:05:55;;;;;;;9.68;9.02;;;1.00;47.00;;;;;;20284;6919;280881;-74
2023/01/19 07:08:21;;;;;;;9.20;8.10;;;0.90;47.20;;;;;;20490;6920;117582;-76
2023/01/19 07:10:47;;;;;;;8.27;7.57;;;0.90;47.20;;;;;;20478;6920;121671;-79
2023/01/19 07:13:13;;;;;;;10.95;9.95;;;0.40;47.80;;;;;;20283;6920;339817;-73
2023/01/19 07:15:38;;;;;;;11.88;10.80;;;0.40;48.50;;;;;;20283;6920;340309;-74
2023/01/19 07:18:08;;;;;;;11.05;10.15;;;0.60;49.80;;;;;;20254;6920;344720;-74
2023/01/19 07:20:29;;;;;;;8.67;7.83;;;0.80;49.80;;;;;;20419;6920;117967;-74
2023/01/19 07:22:55;;;;;;;10.25;9.23;;;0.70;49.30;;;;;;20278;6920;280488;-74
2023/01/19 07:25:20;;;;;;;10.55;9.75;;;0.60;49.20;;;;;;20275;6920;340037;-74
2023/01/19 07:27:46;;;;;;;8.98;8.07;;;0.80;48.00;;;;;;20513;6920;69080;-75
2023/01/19 07:30:14;;;;;;;7.53;6.77;;;0.60;48.00;;;;;;20488;6920;117536;-75
2023/01/19 07:32:41;;;;;;;7.37;6.87;;;-0.10;49.30;;;;;;20466;6920;117558;-78
2023/01/19 07:35:06;;;;;;;9.93;9.13;;;-0.10;49.20;;;;;;20277;6920;280947;-75
2023/01/19 07:37:31;;;;;;;8.93;8.03;;;-0.10;49.20;;;;;;20490;6920;117913;-72
2023/01/19 07:39:57;;;;;;;11.43;10.40;;;0.00;49.30;;;;;;20282;6920;295412;-73
2023/01/19 07:42:24;;;;;;;18.12;16.33;;;0.00;49.30;;;;;;20277;6920;310183;-75
2023/01/19 07:44:50;;;;;;;24.97;22.30;;;0.20;48.80;;;;;;20463;6920;119804;-76
2023/01/19 07:47:15;;;;;;;14.67;13.23;;;0.20;48.70;;;;;;20497;6920;117934;-74
2023/01/19 07:49:41;;;;;;;13.97;12.63;;;-0.10;49.10;;;;;;20492;6920;118248;-74
2023/01/19 07:52:07;;;;;;;14.18;12.88;;;-0.30;49.60;;;;;;20282;6920;332463;-75
2023/01/19 07:54:33;;;;;;;21.77;16.30;;;-0.30;49.70;;;;;;20469;6920;118937;-75
2023/01/19 07:57:02;;;;;;;18.30;16.60;;;-0.20;49.70;;;;;;20493;6920;122089;-74
2023/01/19 07:59:29;;;;;;;17.53;15.97;;;-0.30;50.20;;;;;;20281;6920;310831;-73
2023/01/19 08:01:53;;;;;;;20.67;18.90;;;-0.20;50.50;;;;;;20274;6920;314781;-74
2023/01/19 08:04:20;;;;;;;13.77;12.43;;;0.20;49.70;;;;;;20494;6920;121958;-73
2023/01/19 08:06:46;;;;;;;14.73;13.43;;;0.40;49.60;;;;;;20476;6920;121754;-73
2023/01/19 08:09:11;;;;;;;13.73;12.43;;;0.30;49.50;;;;;;20294;6920;281433;-75
2023/01/19 08:11:37;;;;;;;12.07;11.07;;;0.40;49.80;;;;;;20284;6920;310167;-72
2023/01/19 08:14:03;;;;;;;14.67;13.13;;;0.80;48.80;;;;;;20495;6918;118156;-77
2023/01/19 08:16:29;;;;;;;98.25;58.28;;;0.80;48.80;;;;;;20262;6919;292615;-75
2023/01/19 08:18:54;;;;;;;71.50;51.37;;;1.00;48.70;;;;;;20285;6920;285035;-73
2023/01/19 08:21:20;;;;;;;21.83;19.48;;;1.30;48.00;;;;;;20497;6920;118357;-74
2023/01/19 08:23:57;;;;;;;29.63;22.40;;;1.30;48.10;;;;;;20486;6920;118391;-77
2023/01/19 08:26:29;;;;;;;19.03;17.03;;;1.10;48.30;;;;;;20523;6920;118534;-79
2023/01/19 08:28:56;;;;;;;11.20;10.10;;;0.90;48.80;;;;;;20502;6920;121130;-75
2023/01/19 08:31:21;;;;;;;16.20;14.70;;;0.60;49.10;;;;;;20294;6920;280542;-79
2023/01/19 08:33:47;;;;;;;14.52;13.23;;;0.90;50.00;;;;;;20507;6920;119714;-79
2023/01/19 08:36:13;;;;;;;11.33;9.17;;;0.80;49.50;;;;;;20523;6920;71909;-80
2023/01/19 08:38:42;;;;;;;9.32;8.52;;;0.80;50.00;;;;;;20490;6920;148936;-79
2023/01/19 08:41:04;;;;;;;8.13;7.40;;;0.90;50.50;;;;;;20472;6920;118047;-77
2023/01/19 08:43:32;;;;;;;8.10;7.40;;;1.00;51.00;;;;;;20509;6920;116287;-79
2023/01/19 08:45:57;;;;;;;6.67;6.17;;;1.00;51.00;;;;;;20506;6920;118048;-77
2023/01/19 08:48:23;;;;;;;9.00;8.37;;;1.10;51.20;;;;;;20286;6920;314600;-76
2023/01/19 08:50:48;;;;;;;9.50;8.70;;;1.40;50.00;;;;;;20264;6920;280223;-76
2023/01/19 08:53:14;;;;;;;8.20;7.60;;;1.80;48.00;;;;;;20488;6920;119545;-71
2023/01/19 08:55:39;;;;;;;8.37;7.57;;;2.00;47.90;;;;;;20494;6920;117209;-71
2023/01/19 08:58:06;;;;;;;10.10;8.87;;;1.90;48.30;;;;;;20496;6920;118421;-71
2023/01/19 09:00:32;;;;;;;12.18;11.07;;;1.90;48.90;;;;;;20264;6920;281076;-73
2023/01/19 09:02:56;;;;;;;9.30;8.50;;;2.00;48.00;;;;;;20485;6920;117859;-73
2023/01/19 09:05:22;;;;;;;10.45;9.63;;;2.20;48.00;;;;;;20281;6920;310198;-73
2023/01/19 09:07:47;;;;;;;8.98;8.27;;;2.40;46.90;;;;;;20274;6920;340243;-77
2023/01/19 09:10:14;;;;;;;8.60;8.00;;;2.80;45.80;;;;;;20279;6920;312536;-73
2023/01/19 09:12:40;;;;;;;6.80;6.27;;;3.10;44.80;;;;;;20470;6920;133237;-72
2023/01/19 09:15:06;;;;;;;6.75;6.25;;;3.10;45.10;;;;;;20494;6920;117524;-74
2023/01/19 09:17:31;;;;;;;8.85;8.23;;;2.90;46.00;;;;;;20273;6920;344586;-73
2023/01/19 09:19:57;;;;;;;7.03;6.43;;;2.80;45.00;;;;;;20489;6920;117908;-73
2023/01/19 09:22:23;;;;;;;6.33;5.80;;;2.70;45.30;;;;;;20490;6920;117972;-73
2023/01/19 09:24:48;;;;;;;9.40;8.70;;;2.50;46.00;;;;;;20253;6918;340683;-75
2023/01/19 09:27:14;;;;;;;9.75;8.85;;;2.50;46.10;;;;;;20493;6919;117285;-73
2023/01/19 09:29:39;;;;;;;9.57;8.77;;;2.50;46.60;;;;;;20495;6920;118513;-73
2023/01/19 09:32:06;;;;;;;11.52;10.52;;;2.50;47.10;;;;;;20284;6920;280569;-72
2023/01/19 09:34:31;;;;;;;9.77;8.87;;;2.50;47.10;;;;;;20472;6920;118289;-72
2023/01/19 09:36:57;;;;;;;9.23;8.43;;;2.60;47.10;;;;;;20493;6920;117612;-75
2023/01/19 09:39:22;;;;;;;12.70;11.60;;;2.50;47.30;;;;;;20274;6920;340346;-73
2023/01/19 09:41:48;;;;;;;15.60;12.77;;;2.60;47.80;;;;;;20497;6920;119474;-73
2023/01/19 09:44:27;;;;;;;9.27;8.37;;;2.70;47.40;;;;;;20472;6920;118185;-73
2023/01/19 09:46:52;;;;;;;11.43;10.50;;;2.60;47.80;;;;;;20289;6920;280641;-74
2023/01/19 09:49:35;;;;;;;9.85;9.15;;;2.70;46.90;;;;;;20291;6920;280980;-74
2023/01/19 09:52:00;;;;;;;9.13;8.33;;;3.00;46.20;;;;;;20478;6920;118725;-74
2023/01/19 09:54:30;;;;;;;9.00;8.30;;;2.80;47.00;;;;;;20474;6920;117627;-75
2023/01/19 09:56:55;;;;;;;11.30;8.00;;;2.80;47.00;;;;;;20430;6935;118716;-75
2023/01/19 09:59:25;;;;;;;16.48;14.85;;;2.70;47.80;;;;;;20242;6935;314166;-77
2023/01/19 10:02:17;;;;;;;9.93;9.03;;;3.00;48.20;;;;;;20445;6932;118569;-77
2023/01/19 10:04:59;;;;;;;7.10;6.50;;;3.00;47.50;;;;;;20413;6935;117838;-78
2023/01/19 10:07:35;;;;;;;9.60;8.80;;;2.90;47.80;;;;;;20244;6932;280821;-76
2023/01/19 10:10:11;;;;;;;8.48;7.78;;;3.10;46.60;;;;;;20223;6932;339772;-74
2023/01/19 10:12:40;;;;;;;8.03;7.43;;;3.50;46.00;;;;;;20425;6935;118386;-74
2023/01/19 10:15:26;;;;;;;12.20;8.47;;;3.60;46.20;;;;;;20464;6932;117848;-74
2023/01/19 10:18:14;;;;;;;9.13;8.27;;;3.50;46.80;;;;;;20457;6932;118001;-73
2023/01/19 10:20:47;;;;;;;9.00;8.10;;;3.40;47.20;;;;;;20223;6935;281867;-76
2023/01/19 10:23:12;;;;;;;9.63;8.87;;;3.50;45.70;;;;;;19875;6932;341692;-75
2023/01/19 10:25:38;;;;;;;8.25;7.50;;;3.90;45.10;;;;;;20157;6935;305623;-75
2023/01/19 10:28:05;;;;;;;7.28;6.70;;;4.10;44.10;;;;;;20469;6932;118046;-74
2023/01/19 10:30:31;;;;;;;7.97;6.70;;;3.90;45.50;;;;;;20447;6932;117989;-73
2023/01/19 10:32:58;;;;;;;6.43;5.93;;;3.90;45.50;;;;;;20462;6932;118827;-75
2023/01/19 10:35:24;;;;;;;8.30;7.70;;;3.80;45.90;;;;;;20251;6932;309247;-78
2023/01/19 10:37:57;;;;;;;6.90;6.40;;;3.80;45.90;;;;;;20462;6933;117441;-73
2023/01/19 10:40:26;;;;;;;8.17;7.47;;;3.70;46.60;;;;;;20459;6931;118528;-72
2023/01/19 10:42:52;;;;;;;9.00;8.17;;;3.70;46.60;;;;;;20222;6931;309868;-73
2023/01/19 10:45:17;;;;;;;8.45;7.57;;;3.80;45.80;;;;;;20248;6932;285495;-77
2023/01/19 10:47:43;;;;;;;6.72;6.22;;;4.10;44.80;;;;;;20488;6920;118601;-76
2023/01/19 10:50:31;;;;;;;7.72;7.03;;;4.10;45.00;;;;;;20274;6920;309699;-73
2023/01/19 10:52:57;;;;;;;8.50;7.70;;;4.20;44.70;;;;;;20278;6920;310614;-76
2023/01/19 10:55:28;;;;;;;9.97;8.97;;;4.40;43.90;;;;;;20277;6920;311008;-75
2023/01/19 10:57:54;;;;;;;11.33;6.00;;;4.60;43.40;;;;;;20485;6920;118631;-75
2023/01/19 11:00:36;;;;;;;7.90;7.30;;;4.50;44.00;;;;;;20277;6920;310499;-73
2023/01/19 11:03:01;;;;;;;6.57;5.90;;;4.50;43.60;;;;;;20492;6920;117538;-73
2023/01/19 11:05:27;;;;;;;7.53;6.93;;;4.40;44.30;;;;;;20286;6920;329742;-73
2023/01/19 11:07:53;;;;;;;7.40;6.70;;;4.40;44.10;;;;;;20493;6920;118608;-73
2023/01/19 11:10:21;;;;;;;7.53;6.80;;;4.30;44.70;;;;;;20293;6920;280468;-73
2023/01/19 11:13:06;;;;;;;6.63;5.90;;;4.30;44.30;;;;;;20474;6920;123565;-72
2023/01/19 11:15:48;;;;;;;7.30;6.78;;;4.30;44.80;;;;;;20266;6920;311030;-73
2023/01/19 11:18:30;;;;;;;6.27;5.77;;;4.40;44.40;;;;;;20494;6920;117445;-72
2023/01/19 11:21:05;;;;;;;5.33;4.93;;;4.30;44.80;;;;;;20485;6920;118121;-72
2023/01/19 11:23:31;;;;;;;5.70;5.30;;;4.00;45.50;;;;;;20483;6920;117487;-72
2023/01/19 11:25:57;;;;;;;5.50;5.00;;;4.00;44.80;;;;;;20278;6920;306757;-73
2023/01/19 11:28:33;;;;;;;5.47;5.07;;;4.00;45.00;;;;;;20269;6920;340208;-72
2023/01/19 11:30:58;;;;;;;5.10;4.53;;;4.30;44.20;;;;;;20481;6920;118156;-72
2023/01/19 11:33:24;;;;;;;5.68;5.28;;;4.30;44.60;;;;;;20271;6920;310510;-72
2023/01/19 11:35:50;;;;;;;5.90;5.40;;;4.30;44.20;;;;;;20267;6920;281243;-72
2023/01/19 11:38:15;;;;;;;4.93;4.63;;;4.60;44.40;;;;;;20487;6920;117689;-71
2023/01/19 11:40:40;;;;;;;5.10;4.60;;;4.50;44.60;;;;;;20456;6920;121283;-74
2023/01/19 11:43:10;;;;;;;4.70;4.30;;;4.30;45.20;;;;;;20476;6920;117757;-72
2023/01/19 11:45:36;;;;;;;5.70;5.20;;;4.00;45.80;;;;;;20268;6920;313791;-73
2023/01/19 11:48:02;;;;;;;5.43;4.40;;;4.10;45.30;;;;;;20462;6918;118447;-73
2023/01/19 11:50:38;;;;;;;5.80;5.37;;;4.10;45.30;;;;;;20246;6919;320424;-74
2023/01/19 11:53:03;;;;;;;5.13;4.73;;;4.30;44.70;;;;;;20479;6920;118939;-74
2023/01/19 11:55:35;;;;;;;5.20;4.80;;;4.30;45.10;;;;;;20490;6920;118422;-76
2023/01/19 11:58:00;;;;;;;7.50;5.50;;;4.20;45.70;;;;;;20491;6920;121415;-73
2023/01/19 12:00:27;;;;;;;5.70;5.20;;;4.10;46.30;;;;;;20480;6920;119166;-74
2023/01/19 12:02:52;;;;;;;6.90;6.30;;;4.00;46.70;;;;;;20270;6920;314423;-73
2023/01/19 12:05:17;;;;;;;6.97;6.27;;;4.10;45.70;;;;;;20239;6920;342248;-74
2023/01/19 12:07:43;;;;;;;6.10;5.47;;;4.60;45.80;;;;;;20470;6920;117530;-73
2023/01/19 12:10:16;;;;;;;6.00;5.60;;;4.50;44.90;;;;;;20463;6920;118440;-74
2023/01/19 12:12:41;;;;;;;6.67;6.07;;;4.40;45.50;;;;;;20402;6920;118528;-73
2023/01/19 12:15:16;;;;;;;7.60;6.90;;;4.30;46.80;;;;;;20281;6920;310567;-73
2023/01/19 12:17:39;;;;;;;6.63;6.10;;;4.50;45.60;;;;;;20260;6920;290912;-73
2023/01/19 12:20:06;;;;;;;6.07;5.60;;;4.90;45.20;;;;;;20462;6920;117478;-72
2023/01/19 12:22:31;;;;;;;6.53;6.03;;;4.90;45.20;;;;;;20228;6920;314606;-75
2023/01/19 12:24:57;;;;;;;5.70;5.20;;;4.90;44.40;;;;;;20252;6920;282264;-75
2023/01/19 12:27:23;;;;;;;6.10;5.60;;;5.10;44.00;;;;;;20222;6920;280110;-74
2023/01/19 12:29:49;;;;;;;6.05;5.55;;;5.30;43.50;;;;;;20198;6920;310253;-74
2023/01/19 12:32:15;;;;;;;5.17;4.77;;;5.50;43.10;;;;;;20470;6920;117573;-73
2023/01/19 12:34:39;;;;;;;4.97;4.57;;;5.40;43.80;;;;;;20466;6920;118820;-75
2023/01/19 12:37:06;;;;;;;5.70;5.30;;;5.10;44.50;;;;;;20267;6920;310555;-78
2023/01/19 12:39:31;;;;;;;5.72;5.22;;;5.10;44.50;;;;;;20188;6920;315908;-75
2023/01/19 12:42:03;;;;;;;5.90;5.43;;;5.30;43.60;;;;;;20276;6920;310593;-74
2023/01/19 12:44:29;;;;;;;5.40;5.10;;;5.40;43.10;;;;;;20240;6920;281712;-75
2023/01/19 12:47:02;;;;;;;6.78;5.90;;;5.60;42.90;;;;;;20267;6920;340209;-74